Time;durP1;ratioP1;P1;durP2;ratioP2;P2;SDS_P1;SDS_P2;PMS_P1;PMS_P2;Temp;Humidity;BMP_temperature;BMP_pressure;BME280_temperature;BME280_humidity;BME280_pressure;Samples;Min_cycle;Max_cycle;Signal;HPM_P1;HPM_P2
2021/10/15 00:00:10;;;;;;;2.45;1.30;;;;;;;;;;5066241;28;20052;-77
2021/10/15 00:02:36;;;;;;;4.50;1.50;;;;;;;;;;5068321;28;20063;-76
2021/10/15 00:05:03;;;;;;;3.38;1.30;;;;;;;;;;5068022;28;20551;-78
2021/10/15 00:07:29;;;;;;;4.40;1.50;;;;;;;;;;5072873;28;20071;-77
2021/10/15 00:09:56;;;;;;;4.03;1.50;;;;;;;;;;5070050;28;20060;-77
2021/10/15 00:12:22;;;;;;;4.07;1.60;;;;;;;;;;5065486;28;20497;-77
2021/10/15 00:14:48;;;;;;;3.20;1.25;;;;;;;;;;5068042;28;20059;-77
2021/10/15 00:17:15;;;;;;;4.18;1.55;;;;;;;;;;5067289;28;20056;-77
2021/10/15 00:19:42;;;;;;;2.78;1.42;;;;;;;;;;5064761;28;20058;-78
2021/10/15 00:22:08;;;;;;;2.40;1.35;;;;;;;;;;5061190;28;20063;-77
2021/10/15 00:24:34;;;;;;;2.78;1.10;;;;;;;;;;5067010;28;20071;-78
2021/10/15 00:27:01;;;;;;;2.92;1.60;;;;;;;;;;5060352;28;20076;-76
2021/10/15 00:29:27;;;;;;;2.80;1.38;;;;;;;;;;5067341;28;20071;-77
2021/10/15 00:31:54;;;;;;;2.50;1.30;;;;;;;;;;5065443;28;20063;-77
2021/10/15 00:34:20;;;;;;;3.17;1.35;;;;;;;;;;5069643;28;20545;-77
2021/10/15 00:36:47;;;;;;;3.92;1.55;;;;;;;;;;5062696;28;20147;-77
2021/10/15 00:39:13;;;;;;;4.00;1.42;;;;;;;;;;5066260;28;20748;-77
2021/10/15 00:41:39;;;;;;;2.72;1.50;;;;;;;;;;5067430;28;20500;-77
2021/10/15 00:44:11;;;;;;;2.80;1.50;;;;;;;;;;5065744;28;20059;-78
2021/10/15 00:46:38;;;;;;;3.53;1.70;;;;;;;;;;5066358;28;20577;-77
2021/10/15 00:49:05;;;;;;;2.75;1.30;;;;;;;;;;5069690;28;20063;-78
2021/10/15 00:51:32;;;;;;;2.70;1.50;;;;;;;;;;5070411;28;20094;-77
2021/10/15 00:53:58;;;;;;;2.78;1.45;;;;;;;;;;5062501;28;20029;-78
2021/10/15 00:56:25;;;;;;;2.70;1.55;;;;;;;;;;5062069;28;20060;-78
2021/10/15 00:58:51;;;;;;;3.83;1.65;;;;;;;;;;5065724;28;20577;-78
2021/10/15 01:01:17;;;;;;;3.78;1.70;;;;;;;;;;5064577;28;20118;-77
2021/10/15 01:03:44;;;;;;;3.78;1.45;;;;;;;;;;5069240;28;20063;-78
2021/10/15 01:06:10;;;;;;;3.40;1.67;;;;;;;;;;5067639;28;20132;-78
2021/10/15 01:08:38;;;;;;;2.92;1.25;;;;;;;;;;5065942;28;20056;-78
2021/10/15 01:11:05;;;;;;;3.40;1.80;;;;;;;;;;5068412;28;20078;-78
2021/10/15 01:13:31;;;;;;;3.28;1.50;;;;;;;;;;5067890;28;20068;-78
2021/10/15 01:16:01;;;;;;;2.42;1.45;;;;;;;;;;5057885;28;20071;-78
2021/10/15 01:18:28;;;;;;;3.50;1.55;;;;;;;;;;5063170;28;20100;-77
2021/10/15 01:20:54;;;;;;;3.78;1.50;;;;;;;;;;5065766;28;20037;-77
2021/10/15 01:23:20;;;;;;;4.28;1.60;;;;;;;;;;5068379;28;20067;-78
2021/10/15 01:25:47;;;;;;;2.25;1.50;;;;;;;;;;5065511;28;20072;-76
2021/10/15 01:28:13;;;;;;;2.40;1.27;;;;;;;;;;5062772;28;20078;-78
2021/10/15 01:30:40;;;;;;;4.00;1.35;;;;;;;;;;5069348;28;20076;-78
2021/10/15 01:33:06;;;;;;;2.80;1.60;;;;;;;;;;5067855;28;20440;-77
2021/10/15 01:35:32;;;;;;;3.22;1.58;;;;;;;;;;5066211;28;20049;-78
2021/10/15 01:37:59;;;;;;;3.55;1.48;;;;;;;;;;5063451;28;20056;-78
2021/10/15 01:40:25;;;;;;;2.22;1.13;;;;;;;;;;5065545;28;20496;-79
2021/10/15 01:42:54;;;;;;;4.78;1.88;;;;;;;;;;5065036;28;20136;-79
2021/10/15 01:45:25;;;;;;;3.80;1.60;;;;;;;;;;5067721;28;22237;-79
2021/10/15 01:47:52;;;;;;;2.05;1.20;;;;;;;;;;5064609;28;20524;-79
2021/10/15 01:50:19;;;;;;;3.40;1.48;;;;;;;;;;5063077;28;20110;-79
2021/10/15 01:52:45;;;;;;;4.07;1.58;;;;;;;;;;5067366;28;20445;-79
2021/10/15 01:55:12;;;;;;;3.00;1.30;;;;;;;;;;5064121;28;20460;-79
2021/10/15 01:57:38;;;;;;;4.28;1.35;;;;;;;;;;5067013;28;20072;-78
2021/10/15 02:00:05;;;;;;;3.03;1.40;;;;;;;;;;5058607;28;20060;-78
2021/10/15 02:02:32;;;;;;;5.05;1.67;;;;;;;;;;5066295;28;20060;-78
2021/10/15 02:04:58;;;;;;;3.17;1.40;;;;;;;;;;5067121;28;20064;-78
2021/10/15 02:07:25;;;;;;;3.13;1.33;;;;;;;;;;5059069;28;20146;-77
2021/10/15 02:09:52;;;;;;;5.47;1.38;;;;;;;;;;5060624;28;20064;-77
2021/10/15 02:12:18;;;;;;;3.10;1.40;;;;;;;;;;5064096;28;20048;-78
2021/10/15 02:14:45;;;;;;;2.40;1.23;;;;;;;;;;5067208;28;20101;-78
2021/10/15 02:17:11;;;;;;;2.88;1.30;;;;;;;;;;5067518;28;20056;-79
2021/10/15 02:19:38;;;;;;;3.53;1.40;;;;;;;;;;5066945;28;20060;-78
2021/10/15 02:22:04;;;;;;;3.08;1.33;;;;;;;;;;5068187;28;20052;-78
2021/10/15 02:24:31;;;;;;;3.88;1.30;;;;;;;;;;5067611;28;20028;-79
2021/10/15 02:26:57;;;;;;;4.00;1.30;;;;;;;;;;5067814;28;20072;-78
2021/10/15 02:29:23;;;;;;;3.22;1.55;;;;;;;;;;5060945;28;20520;-77
2021/10/15 02:31:50;;;;;;;3.63;1.55;;;;;;;;;;5060932;28;20064;-77
2021/10/15 02:34:17;;;;;;;2.60;1.50;;;;;;;;;;5062471;28;20059;-77
2021/10/15 02:36:44;;;;;;;4.07;1.50;;;;;;;;;;5062470;28;20052;-78
2021/10/15 02:39:11;;;;;;;3.58;1.33;;;;;;;;;;5069076;28;20029;-78
2021/10/15 02:41:37;;;;;;;3.33;1.63;;;;;;;;;;5064243;28;20498;-78
2021/10/15 02:44:07;;;;;;;2.50;1.30;;;;;;;;;;5067534;28;20052;-79
2021/10/15 02:46:34;;;;;;;3.78;1.58;;;;;;;;;;5064268;28;20542;-77
2021/10/15 02:49:01;;;;;;;4.30;1.42;;;;;;;;;;5065236;28;20060;-78
2021/10/15 02:51:27;;;;;;;2.70;1.35;;;;;;;;;;5068098;28;20067;-78
2021/10/15 02:53:54;;;;;;;2.22;1.20;;;;;;;;;;5068511;28;20064;-78
2021/10/15 02:56:20;;;;;;;3.80;1.70;;;;;;;;;;5070835;28;21507;-79
2021/10/15 02:58:47;;;;;;;3.65;1.50;;;;;;;;;;5079985;28;20036;-79
2021/10/15 03:01:13;;;;;;;3.75;1.63;;;;;;;;;;5064629;28;20080;-78
2021/10/15 03:03:40;;;;;;;4.20;1.45;;;;;;;;;;5071135;28;20066;-78
2021/10/15 03:06:07;;;;;;;2.72;1.40;;;;;;;;;;5067871;28;20453;-78
2021/10/15 03:08:33;;;;;;;2.90;1.30;;;;;;;;;;5066192;28;20114;-79
2021/10/15 03:11:00;;;;;;;6.57;1.38;;;;;;;;;;5067755;28;20060;-79
2021/10/15 03:13:26;;;;;;;2.53;1.27;;;;;;;;;;5071015;28;20056;-78
2021/10/15 03:15:52;;;;;;;3.83;1.35;;;;;;;;;;5066480;28;20067;-76
2021/10/15 03:18:19;;;;;;;3.65;1.60;;;;;;;;;;5071004;28;20075;-76
2021/10/15 03:20:46;;;;;;;2.53;1.40;;;;;;;;;;5070229;28;20033;-77
2021/10/15 03:23:12;;;;;;;3.78;1.50;;;;;;;;;;5065098;28;20068;-77
2021/10/15 03:25:38;;;;;;;3.38;1.40;;;;;;;;;;5070403;28;20059;-79
2021/10/15 03:28:06;;;;;;;3.30;1.50;;;;;;;;;;5057699;28;20455;-78
2021/10/15 03:30:32;;;;;;;2.80;1.52;;;;;;;;;;5072188;28;20048;-78
2021/10/15 03:32:59;;;;;;;3.13;1.50;;;;;;;;;;5062398;28;20094;-78
2021/10/15 03:35:25;;;;;;;3.92;1.77;;;;;;;;;;5063789;28;20527;-78
2021/10/15 03:37:52;;;;;;;1.90;1.20;;;;;;;;;;5068138;28;20040;-78
2021/10/15 03:40:18;;;;;;;4.03;1.35;;;;;;;;;;5058816;28;20637;-77
2021/10/15 03:42:45;;;;;;;4.80;1.58;;;;;;;;;;5062295;28;20060;-77
2021/10/15 03:45:11;;;;;;;3.03;1.60;;;;;;;;;;5063249;28;20056;-78
2021/10/15 03:47:38;;;;;;;3.30;1.50;;;;;;;;;;5059158;28;20157;-78
2021/10/15 03:50:07;;;;;;;3.45;1.48;;;;;;;;;;5066150;28;20060;-77
2021/10/15 03:52:33;;;;;;;2.78;1.40;;;;;;;;;;5060514;28;20048;-78
2021/10/15 03:55:00;;;;;;;2.05;1.23;;;;;;;;;;5059771;28;20064;-78
2021/10/15 03:57:26;;;;;;;4.18;1.92;;;;;;;;;;5061730;28;20067;-78
2021/10/15 03:59:53;;;;;;;2.15;1.27;;;;;;;;;;5063937;28;20775;-78
2021/10/15 04:02:19;;;;;;;3.60;1.40;;;;;;;;;;5060523;28;20087;-78
2021/10/15 04:04:45;;;;;;;1.70;1.20;;;;;;;;;;5068761;28;20492;-78
2021/10/15 04:07:12;;;;;;;1.88;1.30;;;;;;;;;;5063587;28;20071;-79
2021/10/15 04:09:38;;;;;;;3.50;1.67;;;;;;;;;;5059136;28;20060;-85
2021/10/15 04:12:05;;;;;;;2.67;1.20;;;;;;;;;;5067746;28;20526;-80
2021/10/15 04:14:31;;;;;;;1.92;1.25;;;;;;;;;;5057997;28;20056;-82
2021/10/15 04:16:57;;;;;;;2.50;1.13;;;;;;;;;;5064666;28;20432;-78
2021/10/15 04:19:24;;;;;;;2.22;1.10;;;;;;;;;;5060232;28;20045;-78
2021/10/15 04:21:50;;;;;;;1.88;0.95;;;;;;;;;;5067926;28;20064;-79
2021/10/15 04:24:16;;;;;;;4.03;1.58;;;;;;;;;;5063157;28;20037;-79
2021/10/15 04:26:43;;;;;;;4.40;1.13;;;;;;;;;;5066249;28;20067;-84
2021/10/15 04:29:09;;;;;;;2.33;1.25;;;;;;;;;;5067185;28;20560;-78
2021/10/15 04:31:36;;;;;;;2.42;1.30;;;;;;;;;;5068769;28;20060;-76
2021/10/15 04:34:02;;;;;;;4.18;1.20;;;;;;;;;;5066049;28;20067;-81
2021/10/15 04:36:28;;;;;;;3.95;1.20;;;;;;;;;;5058337;28;20056;-75
2021/10/15 04:38:55;;;;;;;2.30;1.00;;;;;;;;;;5072391;28;20060;-75
2021/10/15 04:41:21;;;;;;;3.47;1.40;;;;;;;;;;5067382;28;20503;-76
2021/10/15 04:43:48;;;;;;;5.47;1.50;;;;;;;;;;5062434;28;20059;-81
2021/10/15 04:46:14;;;;;;;6.22;1.77;;;;;;;;;;5065920;28;20076;-80
2021/10/15 04:48:41;;;;;;;4.95;1.42;;;;;;;;;;5070642;28;20060;-79
2021/10/15 04:51:07;;;;;;;6.10;1.92;;;;;;;;;;5058406;28;20530;-80
2021/10/15 04:53:33;;;;;;;8.50;1.75;;;;;;;;;;5066893;28;20063;-81
2021/10/15 04:56:00;;;;;;;4.68;1.48;;;;;;;;;;5068335;28;20524;-81
2021/10/15 04:58:26;;;;;;;3.67;1.38;;;;;;;;;;5061852;28;20099;-79
2021/10/15 05:00:53;;;;;;;7.00;1.70;;;;;;;;;;5061069;28;20063;-79
2021/10/15 05:03:19;;;;;;;6.35;1.42;;;;;;;;;;5067062;28;20086;-79
2021/10/15 05:05:46;;;;;;;4.85;1.48;;;;;;;;;;5057322;28;20067;-79
2021/10/15 05:08:15;;;;;;;4.90;1.55;;;;;;;;;;5061602;28;20049;-78
2021/10/15 05:10:42;;;;;;;7.82;1.60;;;;;;;;;;5062146;28;20056;-79
2021/10/15 05:13:10;;;;;;;5.45;1.20;;;;;;;;;;5066551;28;20032;-80
2021/10/15 05:15:36;;;;;;;5.05;1.42;;;;;;;;;;5063243;28;20056;-77
2021/10/15 05:18:03;;;;;;;4.90;1.08;;;;;;;;;;5065276;28;20067;-77
2021/10/15 05:20:29;;;;;;;8.90;1.30;;;;;;;;;;5062979;28;20052;-78
2021/10/15 05:22:56;;;;;;;6.28;1.30;;;;;;;;;;5066830;28;20440;-77
2021/10/15 05:25:22;;;;;;;5.15;1.23;;;;;;;;;;5056754;28;20053;-78
2021/10/15 05:27:49;;;;;;;5.07;1.63;;;;;;;;;;5056256;28;20748;-77
2021/10/15 05:30:15;;;;;;;3.33;1.05;;;;;;;;;;5071128;28;20052;-79
2021/10/15 05:32:42;;;;;;;1.83;0.90;;;;;;;;;;5068311;28;20044;-79
2021/10/15 05:35:08;;;;;;;3.40;1.25;;;;;;;;;;5068628;28;20044;-79
2021/10/15 05:37:35;;;;;;;3.25;0.90;;;;;;;;;;5069881;28;20055;-79
2021/10/15 05:40:01;;;;;;;3.65;1.00;;;;;;;;;;5063917;28;20063;-77
2021/10/15 05:42:28;;;;;;;3.53;1.00;;;;;;;;;;5061302;28;20125;-78
2021/10/15 05:44:54;;;;;;;5.28;1.13;;;;;;;;;;5064727;28;20056;-78
2021/10/15 05:47:22;;;;;;;6.72;1.00;;;;;;;;;;5058346;28;20073;-78
2021/10/15 05:49:49;;;;;;;3.55;1.10;;;;;;;;;;5056942;28;20059;-77
2021/10/15 05:52:18;;;;;;;2.45;0.90;;;;;;;;;;5067068;28;20070;-77
2021/10/15 05:54:57;;;;;;;3.20;1.17;;;;;;;;;;5070991;28;20626;-79
2021/10/15 05:59:56;;;;;;;3.00;1.13;;;;;;;;;;5068501;28;20078;-77
2021/10/15 06:02:23;;;;;;;2.92;1.00;;;;;;;;;;5066956;28;20085;-77
2021/10/15 06:14:11;;;;;;;3.28;1.05;;;;;;;;;;5067723;28;20078;-77
2021/10/15 06:15:56;;;;;;;3.75;1.08;;;;;;;;;;5067713;28;20101;-77
2021/10/15 06:18:24;;;;;;;5.50;1.05;;;;;;;;;;5069336;28;20101;-78
2021/10/15 06:20:51;;;;;;;3.85;0.88;;;;;;;;;;5066731;28;20028;-78
2021/10/15 06:23:18;;;;;;;3.03;1.60;;;;;;;;;;5067028;28;20028;-78
2021/10/15 06:25:45;;;;;;;3.58;1.40;;;;;;;;;;5067995;28;20058;-83
2021/10/15 06:28:12;;;;;;;8.07;1.67;;;;;;;;;;5064625;28;20496;-80
2021/10/15 06:30:38;;;;;;;5.05;1.17;;;;;;;;;;5062197;28;20064;-80
2021/10/15 06:33:05;;;;;;;3.30;0.80;;;;;;;;;;5062706;28;20178;-79
2021/10/15 06:35:31;;;;;;;2.05;0.70;;;;;;;;;;5062878;28;20048;-79
2021/10/15 06:37:58;;;;;;;5.43;1.17;;;;;;;;;;5065052;28;20056;-79
2021/10/15 06:40:25;;;;;;;4.00;1.17;;;;;;;;;;5067233;28;20044;-78
2021/10/15 06:42:51;;;;;;;5.15;0.88;;;;;;;;;;5066320;28;20121;-79
2021/10/15 06:45:18;;;;;;;8.85;0.90;;;;;;;;;;5067143;28;20079;-79
2021/10/15 06:47:44;;;;;;;6.72;1.30;;;;;;;;;;5062224;28;20072;-78
2021/10/15 06:50:11;;;;;;;3.53;1.00;;;;;;;;;;5059495;28;20064;-80
2021/10/15 06:52:46;;;;;;;3.55;0.88;;;;;;;;;;5064176;28;20461;-79
2021/10/15 06:55:14;;;;;;;4.07;0.80;;;;;;;;;;5058953;28;20060;-78
2021/10/15 06:57:40;;;;;;;4.80;1.00;;;;;;;;;;5066099;28;20098;-80
2021/10/15 07:00:07;;;;;;;2.45;0.90;;;;;;;;;;5064658;28;20119;-78
2021/10/15 07:02:33;;;;;;;2.90;1.23;;;;;;;;;;5070842;28;20109;-79
2021/10/15 07:05:00;;;;;;;2.20;0.93;;;;;;;;;;5064983;28;20108;-80
2021/10/15 07:07:26;;;;;;;2.22;0.93;;;;;;;;;;5069044;28;20522;-79
2021/10/15 07:09:52;;;;;;;2.08;1.00;;;;;;;;;;5063697;28;20056;-78
2021/10/15 07:12:19;;;;;;;4.30;0.80;;;;;;;;;;5066040;28;20071;-79
2021/10/15 07:14:45;;;;;;;2.40;0.70;;;;;;;;;;5067523;28;20052;-78
2021/10/15 07:17:12;;;;;;;5.25;1.40;;;;;;;;;;5067785;28;20464;-79
2021/10/15 07:19:38;;;;;;;3.55;0.95;;;;;;;;;;5068551;28;20052;-78
2021/10/15 07:22:04;;;;;;;2.40;0.80;;;;;;;;;;5066757;28;20056;-78
2021/10/15 07:24:33;;;;;;;2.28;0.80;;;;;;;;;;5067592;28;20056;-78
2021/10/15 07:27:00;;;;;;;2.95;1.38;;;;;;;;;;5046513;28;20090;-78
2021/10/15 07:29:26;;;;;;;3.95;0.82;;;;;;;;;;5060932;28;20561;-78
2021/10/15 07:31:52;;;;;;;3.30;1.00;;;;;;;;;;5065117;28;20068;-78
2021/10/15 07:34:19;;;;;;;3.90;1.05;;;;;;;;;;5065296;28;20080;-78
2021/10/15 07:36:45;;;;;;;2.92;1.00;;;;;;;;;;5067207;28;20067;-78
2021/10/15 07:39:12;;;;;;;4.90;0.90;;;;;;;;;;5070014;28;20055;-78
2021/10/15 07:41:45;;;;;;;3.70;0.80;;;;;;;;;;5068613;28;20056;-78
2021/10/15 07:44:15;;;;;;;2.13;0.50;;;;;;;;;;5070117;28;20033;-79
2021/10/15 07:46:43;;;;;;;2.28;0.68;;;;;;;;;;5068864;28;20071;-78
2021/10/15 07:49:09;;;;;;;1.92;0.50;;;;;;;;;;5069399;28;20098;-78
2021/10/15 07:51:36;;;;;;;4.15;1.08;;;;;;;;;;5071163;28;20131;-78
2021/10/15 07:54:03;;;;;;;2.35;0.93;;;;;;;;;;5069671;28;20056;-78
2021/10/15 07:56:32;;;;;;;1.83;0.70;;;;;;;;;;5069890;28;20060;-79
2021/10/15 07:58:59;;;;;;;2.67;0.90;;;;;;;;;;5074672;28;20553;-79
2021/10/15 08:01:26;;;;;;;3.33;1.10;;;;;;;;;;5070728;28;20129;-79
2021/10/15 08:03:52;;;;;;;4.20;0.98;;;;;;;;;;5065686;28;20547;-79
2021/10/15 08:06:22;;;;;;;2.72;0.80;;;;;;;;;;5069470;28;20033;-79
2021/10/15 08:08:51;;;;;;;3.10;0.85;;;;;;;;;;5067721;28;20041;-79
2021/10/15 08:11:17;;;;;;;2.17;0.70;;;;;;;;;;5067135;28;20056;-79
2021/10/15 08:13:44;;;;;;;3.35;0.73;;;;;;;;;;5069496;28;20048;-79
2021/10/15 08:16:10;;;;;;;3.55;0.98;;;;;;;;;;5068628;28;20053;-79
2021/10/15 08:18:37;;;;;;;2.53;1.00;;;;;;;;;;5069885;28;20025;-79
2021/10/15 08:21:03;;;;;;;2.45;0.75;;;;;;;;;;5066771;28;20502;-79
2021/10/15 08:23:30;;;;;;;1.27;0.45;;;;;;;;;;5068050;28;20060;-79
2021/10/15 08:26:00;;;;;;;1.55;0.60;;;;;;;;;;5057174;28;20122;-79
2021/10/15 08:28:26;;;;;;;1.95;0.77;;;;;;;;;;5066280;28;20460;-79
2021/10/15 08:30:53;;;;;;;5.18;0.88;;;;;;;;;;5065141;28;20025;-79
2021/10/15 08:33:20;;;;;;;2.08;0.73;;;;;;;;;;5068568;28;20039;-79
2021/10/15 08:35:47;;;;;;;2.45;0.50;;;;;;;;;;5070430;28;20048;-79
2021/10/15 08:38:14;;;;;;;2.08;0.70;;;;;;;;;;5061008;28;20415;-79
2021/10/15 08:40:41;;;;;;;2.63;0.60;;;;;;;;;;5068259;28;20064;-79
2021/10/15 08:43:07;;;;;;;2.47;0.75;;;;;;;;;;5067270;28;20033;-79
2021/10/15 08:45:34;;;;;;;1.70;0.57;;;;;;;;;;5079012;28;20408;-79
2021/10/15 08:48:01;;;;;;;2.00;0.70;;;;;;;;;;5080395;28;20041;-79
2021/10/15 08:50:27;;;;;;;2.63;1.05;;;;;;;;;;5089494;28;20036;-79
2021/10/15 08:52:54;;;;;;;2.65;0.60;;;;;;;;;;5087248;28;20112;-79
2021/10/15 08:55:20;;;;;;;4.85;0.93;;;;;;;;;;5085300;28;20033;-78
2021/10/15 08:57:50;;;;;;;2.70;0.68;;;;;;;;;;5072825;28;20021;-78
2021/10/15 09:00:26;;;;;;;1.88;0.80;;;;;;;;;;5083281;28;20108;-78
2021/10/15 09:03:12;;;;;;;3.25;0.63;;;;;;;;;;5068968;28;20032;-79
2021/10/15 09:05:39;;;;;;;3.53;0.80;;;;;;;;;;5067925;28;20099;-79
2021/10/15 09:08:06;;;;;;;2.08;0.60;;;;;;;;;;5070012;28;20448;-79
2021/10/15 09:10:33;;;;;;;3.85;0.90;;;;;;;;;;5072966;28;20514;-79
2021/10/15 09:13:08;;;;;;;1.42;0.63;;;;;;;;;;5057883;28;20477;-79
2021/10/15 09:15:35;;;;;;;3.78;0.98;;;;;;;;;;5069182;28;20036;-79
2021/10/15 09:18:18;;;;;;;3.72;0.93;;;;;;;;;;5068939;28;20484;-79
2021/10/15 09:20:46;;;;;;;2.28;0.90;;;;;;;;;;5070448;28;20037;-79
2021/10/15 09:23:14;;;;;;;2.30;0.60;;;;;;;;;;5059908;28;20093;-79
2021/10/15 09:25:42;;;;;;;2.88;0.80;;;;;;;;;;5065075;28;20052;-79
2021/10/15 09:28:16;;;;;;;3.67;0.70;;;;;;;;;;5067803;28;20057;-79
2021/10/15 09:30:43;;;;;;;1.83;0.70;;;;;;;;;;5069390;28;20052;-79
2021/10/15 09:33:10;;;;;;;2.53;0.65;;;;;;;;;;5063972;28;20060;-79
2021/10/15 09:35:36;;;;;;;3.80;0.88;;;;;;;;;;5067395;28;20046;-79
2021/10/15 09:38:05;;;;;;;3.85;0.90;;;;;;;;;;5068597;28;20062;-79
2021/10/15 09:40:31;;;;;;;3.08;0.75;;;;;;;;;;5069338;28;20084;-80
2021/10/15 09:43:04;;;;;;;3.67;0.70;;;;;;;;;;5066030;28;20125;-80
2021/10/15 09:45:45;;;;;;;1.85;0.63;;;;;;;;;;5069692;28;20048;-80
2021/10/15 09:48:20;;;;;;;3.08;0.82;;;;;;;;;;5068739;28;20064;-79
2021/10/15 09:50:47;;;;;;;2.00;0.50;;;;;;;;;;5067395;28;20043;-79
2021/10/15 09:53:13;;;;;;;2.17;0.70;;;;;;;;;;5063101;28;20087;-80
2021/10/15 09:55:41;;;;;;;3.55;0.95;;;;;;;;;;5065718;28;20029;-79
2021/10/15 09:58:19;;;;;;;1.70;0.70;;;;;;;;;;5061577;28;20065;-79
2021/10/15 10:00:46;;;;;;;2.67;0.80;;;;;;;;;;5064670;28;20067;-79
2021/10/15 10:03:14;;;;;;;1.88;0.73;;;;;;;;;;5067126;28;20556;-79
2021/10/15 10:05:41;;;;;;;3.20;0.95;;;;;;;;;;5071755;28;20137;-79
2021/10/15 10:08:10;;;;;;;4.10;0.85;;;;;;;;;;5066613;28;20068;-80
2021/10/15 10:10:37;;;;;;;4.90;0.80;;;;;;;;;;5056184;28;20114;-79
2021/10/15 10:13:04;;;;;;;2.72;0.50;;;;;;;;;;5066845;28;20029;-79
2021/10/15 10:15:32;;;;;;;2.80;0.95;;;;;;;;;;5067051;28;20204;-79
2021/10/15 10:17:58;;;;;;;3.45;0.82;;;;;;;;;;5066288;28;20142;-78
2021/10/15 10:20:27;;;;;;;3.35;0.80;;;;;;;;;;5067895;28;20060;-78
2021/10/15 10:23:13;;;;;;;2.78;0.75;;;;;;;;;;5067592;28;20366;-79
2021/10/15 10:25:39;;;;;;;5.40;0.80;;;;;;;;;;5067521;28;20040;-79
2021/10/15 10:28:16;;;;;;;3.50;0.80;;;;;;;;;;5066041;28;20491;-78
2021/10/15 10:30:44;;;;;;;3.15;0.80;;;;;;;;;;5061887;28;20056;-78
2021/10/15 10:33:10;;;;;;;3.70;0.80;;;;;;;;;;5068011;28;20059;-78
2021/10/15 10:35:37;;;;;;;3.28;0.98;;;;;;;;;;5066743;28;20059;-78
2021/10/15 10:38:15;;;;;;;3.35;1.00;;;;;;;;;;5066526;28;20068;-78
2021/10/15 10:41:00;;;;;;;3.90;0.70;;;;;;;;;;5066148;28;20087;-78
2021/10/15 10:43:30;;;;;;;5.80;0.80;;;;;;;;;;5068028;28;20028;-78
2021/10/15 10:46:09;;;;;;;2.60;0.80;;;;;;;;;;5068291;28;20028;-78
2021/10/15 10:48:47;;;;;;;4.22;0.80;;;;;;;;;;5065897;28;20068;-78
2021/10/15 10:51:17;;;;;;;3.95;0.77;;;;;;;;;;5072558;28;20043;-78
2021/10/15 10:54:05;;;;;;;4.07;0.70;;;;;;;;;;5070846;28;20105;-78
2021/10/15 10:56:38;;;;;;;3.03;0.85;;;;;;;;;;5068752;28;20036;-78
2021/10/15 10:59:23;;;;;;;3.67;0.90;;;;;;;;;;5067228;28;20040;-79
2021/10/15 11:02:03;;;;;;;3.83;0.80;;;;;;;;;;5055098;28;20036;-78
2021/10/15 11:04:31;;;;;;;3.70;0.63;;;;;;;;;;5066310;28;21400;-78
2021/10/15 11:07:04;;;;;;;3.85;0.85;;;;;;;;;;5066472;28;20036;-79
2021/10/15 11:09:41;;;;;;;2.78;0.60;;;;;;;;;;5066400;28;20044;-78
2021/10/15 11:12:08;;;;;;;6.55;0.90;;;;;;;;;;5065837;28;20037;-79
2021/10/15 11:14:47;;;;;;;3.03;1.08;;;;;;;;;;5066372;28;20041;-80
2021/10/15 11:17:13;;;;;;;4.85;1.05;;;;;;;;;;5064303;28;20056;-79
2021/10/15 11:19:40;;;;;;;2.83;0.65;;;;;;;;;;5066535;28;20093;-83
2021/10/15 11:22:07;;;;;;;4.38;0.93;;;;;;;;;;5071568;28;20036;-83
2021/10/15 11:24:33;;;;;;;2.13;0.60;;;;;;;;;;5069713;28;20059;-83
2021/10/15 11:27:00;;;;;;;3.67;0.82;;;;;;;;;;5069190;28;20072;-82
2021/10/15 11:29:27;;;;;;;2.00;0.60;;;;;;;;;;5071788;28;20082;-83
2021/10/15 11:31:59;;;;;;;4.15;0.68;;;;;;;;;;5071216;28;20064;-83
2021/10/15 11:34:25;;;;;;;;;;;;;;;;;;5070327;28;20486;-83
2021/10/15 11:37:04;;;;;;;3.20;0.90;;;;;;;;;;5068334;28;19917;-83
2021/10/15 11:39:30;;;;;;;3.45;0.88;;;;;;;;;;5064682;28;20056;-82
2021/10/15 11:41:57;;;;;;;2.05;0.68;;;;;;;;;;5063406;28;20136;-83
2021/10/15 11:44:36;;;;;;;5.35;0.75;;;;;;;;;;5067433;28;21344;-83
2021/10/15 11:47:03;;;;;;;2.85;0.95;;;;;;;;;;5067186;28;20224;-83
2021/10/15 11:49:37;;;;;;;3.75;1.02;;;;;;;;;;5069806;28;20056;-83
2021/10/15 11:52:03;;;;;;;2.65;0.65;;;;;;;;;;5068625;28;20036;-83
2021/10/15 11:54:30;;;;;;;3.00;0.60;;;;;;;;;;5072903;28;20090;-83
2021/10/15 11:56:56;;;;;;;4.35;0.90;;;;;;;;;;5069122;28;20021;-84
2021/10/15 11:59:25;;;;;;;3.10;0.70;;;;;;;;;;5065675;28;20300;-83
2021/10/15 12:01:51;;;;;;;3.42;0.80;;;;;;;;;;5072263;28;20054;-83
2021/10/15 12:04:18;;;;;;;3.42;1.00;;;;;;;;;;5065998;28;20053;-83
2021/10/15 12:06:48;;;;;;;3.25;0.80;;;;;;;;;;5065441;28;20060;-84
2021/10/15 12:09:16;;;;;;;2.20;0.70;;;;;;;;;;5070164;28;20068;-83
2021/10/15 12:11:50;;;;;;;1.70;0.57;;;;;;;;;;5070952;28;20114;-83
2021/10/15 12:14:20;;;;;;;3.47;1.20;;;;;;;;;;5067423;28;20036;-83
2021/10/15 12:16:49;;;;;;;3.47;0.80;;;;;;;;;;5072084;28;20113;-83
2021/10/15 12:19:19;;;;;;;1.77;0.40;;;;;;;;;;5070257;28;20037;-83
2021/10/15 12:21:55;;;;;;;2.35;0.70;;;;;;;;;;5070064;28;20056;-83
2021/10/15 12:24:33;;;;;;;1.55;0.50;;;;;;;;;;5070409;28;20404;-83
2021/10/15 12:27:13;;;;;;;1.92;0.52;;;;;;;;;;5068901;28;20068;-82
2021/10/15 12:29:44;;;;;;;2.42;0.43;;;;;;;;;;5065793;28;20059;-82
2021/10/15 12:32:15;;;;;;;1.30;0.55;;;;;;;;;;5069703;28;20052;-83
2021/10/15 12:34:55;;;;;;;4.22;0.82;;;;;;;;;;5071435;28;20029;-82
2021/10/15 12:37:35;;;;;;;3.85;0.60;;;;;;;;;;5069257;28;20081;-83
2021/10/15 12:40:28;;;;;;;2.90;0.70;;;;;;;;;;5073041;28;20044;-82
2021/10/15 12:42:55;;;;;;;2.25;0.77;;;;;;;;;;5074020;28;20025;-83
2021/10/15 12:45:22;;;;;;;2.58;0.57;;;;;;;;;;5068967;28;20024;-83
2021/10/15 12:47:54;;;;;;;3.15;0.80;;;;;;;;;;5065537;28;20028;-82
2021/10/15 12:50:21;;;;;;;2.22;0.50;;;;;;;;;;5062647;28;20692;-82
2021/10/15 12:52:47;;;;;;;2.13;0.70;;;;;;;;;;5067776;28;20060;-83
2021/10/15 12:55:13;;;;;;;5.40;0.85;;;;;;;;;;5066939;28;20060;-83
2021/10/15 12:57:40;;;;;;;3.05;0.95;;;;;;;;;;5068094;28;20093;-83
2021/10/15 13:00:08;;;;;;;1.08;0.50;;;;;;;;;;5068407;28;20024;-84
2021/10/15 13:02:35;;;;;;;2.67;0.80;;;;;;;;;;5065984;28;20063;-84
2021/10/15 13:05:02;;;;;;;3.28;0.60;;;;;;;;;;5067674;28;20090;-83
2021/10/15 13:07:28;;;;;;;2.15;0.75;;;;;;;;;;5061102;28;20068;-83
2021/10/15 13:09:56;;;;;;;2.40;0.65;;;;;;;;;;5068914;28;20109;-83
2021/10/15 13:12:22;;;;;;;2.55;0.85;;;;;;;;;;5065941;28;20101;-83
2021/10/15 13:14:49;;;;;;;2.03;0.60;;;;;;;;;;5066083;28;20037;-83
2021/10/15 13:17:15;;;;;;;1.77;0.50;;;;;;;;;;5060461;28;20074;-83
2021/10/15 13:19:42;;;;;;;3.13;0.45;;;;;;;;;;5066642;28;20056;-84
2021/10/15 13:22:09;;;;;;;2.78;0.90;;;;;;;;;;5069975;28;20064;-83
2021/10/15 13:24:35;;;;;;;1.95;0.43;;;;;;;;;;5067503;28;20102;-83
2021/10/15 13:27:01;;;;;;;2.58;0.68;;;;;;;;;;5065380;28;20059;-82
2021/10/15 13:29:28;;;;;;;2.90;0.60;;;;;;;;;;5065498;28;20064;-83
2021/10/15 13:31:54;;;;;;;1.63;0.70;;;;;;;;;;5069517;28;20079;-83
2021/10/15 13:34:22;;;;;;;3.90;0.80;;;;;;;;;;5054515;28;20056;-83
2021/10/15 13:36:49;;;;;;;1.83;0.60;;;;;;;;;;5064397;28;20089;-83
2021/10/15 13:39:16;;;;;;;2.65;0.60;;;;;;;;;;5066966;28;20515;-83
2021/10/15 13:52:02;;;;;;;1.80;0.65;;;;;;;;;;5058202;28;20061;-83
2021/10/15 13:54:29;;;;;;;3.97;0.70;;;;;;;;;;5069727;28;20055;-83
2021/10/15 13:56:55;;;;;;;2.22;0.73;;;;;;;;;;5066481;28;20060;-83
2021/10/15 13:59:26;;;;;;;3.33;0.50;;;;;;;;;;5060209;28;20146;-83
2021/10/15 14:01:59;;;;;;;3.17;0.60;;;;;;;;;;5068749;28;20086;-83
2021/10/15 14:06:54;;;;;;;3.05;0.80;;;;;;;;;;5067931;28;20095;-82
2021/10/15 14:09:21;;;;;;;3.42;0.80;;;;;;;;;;5055817;28;20495;-83
2021/10/15 14:11:47;;;;;;;2.45;0.60;;;;;;;;;;5054347;28;20118;-83
2021/10/15 14:14:15;;;;;;;3.72;0.70;;;;;;;;;;5067795;28;20117;-84
2021/10/15 14:16:41;;;;;;;2.45;1.17;;;;;;;;;;5068082;28;20110;-82
2021/10/15 14:19:08;;;;;;;2.30;0.80;;;;;;;;;;5065927;28;20094;-83
2021/10/15 14:21:35;;;;;;;2.00;0.70;;;;;;;;;;5070230;28;20075;-83
2021/10/15 14:24:02;;;;;;;2.53;0.90;;;;;;;;;;5068110;28;20032;-83
2021/10/15 14:26:28;;;;;;;1.13;0.40;;;;;;;;;;5059292;28;20069;-84
2021/10/15 14:28:54;;;;;;;3.17;0.60;;;;;;;;;;5065321;28;20076;-83
2021/10/15 14:31:21;;;;;;;2.50;0.80;;;;;;;;;;5063699;28;20063;-83
2021/10/15 14:33:47;;;;;;;2.42;0.68;;;;;;;;;;5062941;28;20792;-82
2021/10/15 14:36:14;;;;;;;1.70;0.60;;;;;;;;;;5064377;28;20384;-83
2021/10/15 14:38:41;;;;;;;1.48;0.50;;;;;;;;;;5071609;28;20442;-83
2021/10/15 14:41:07;;;;;;;1.95;0.95;;;;;;;;;;5067952;28;20643;-83
2021/10/15 14:43:35;;;;;;;3.83;0.70;;;;;;;;;;5070656;28;20059;-83
2021/10/15 14:46:01;;;;;;;3.42;0.80;;;;;;;;;;5066070;28;20063;-82
2021/10/15 14:48:28;;;;;;;1.50;0.70;;;;;;;;;;5071769;28;20067;-83
2021/10/15 14:50:54;;;;;;;2.30;0.70;;;;;;;;;;5071612;28;20025;-84
2021/10/15 14:53:21;;;;;;;2.92;0.50;;;;;;;;;;5070841;28;20117;-83
2021/10/15 14:55:47;;;;;;;2.42;0.52;;;;;;;;;;5070738;28;20036;-84
2021/10/15 14:58:14;;;;;;;1.95;0.57;;;;;;;;;;5078534;28;20444;-83
2021/10/15 15:00:41;;;;;;;1.67;0.50;;;;;;;;;;5072491;28;20036;-83
2021/10/15 15:03:07;;;;;;;3.42;0.70;;;;;;;;;;5069206;28;20048;-84
2021/10/15 15:05:34;;;;;;;1.58;0.50;;;;;;;;;;5077281;28;20059;-83
2021/10/15 15:08:00;;;;;;;1.63;0.60;;;;;;;;;;5071090;28;20068;-84
2021/10/15 15:10:27;;;;;;;1.00;0.60;;;;;;;;;;5070404;28;20447;-83